Time;durP1;ratioP1;P1;durP2;ratioP2;P2;SDS_P1;SDS_P2;PMS_P1;PMS_P2;Temp;Humidity;BMP_temperature;BMP_pressure;BME280_temperature;BME280_humidity;BME280_pressure;Samples;Min_cycle;Max_cycle;Signal;HPM_P1;HPM_P2
2022/04/19 00:01:28;;;;;;;4.00;1.20;;;25.60;99.90;;;;;;5071932;28;20184;-67
2022/04/19 00:03:56;;;;;;;1.93;0.73;;;25.20;99.90;;;;;;5071430;28;20168;-67
2022/04/19 00:06:23;;;;;;;3.63;0.90;;;25.40;99.90;;;;;;5071756;28;20183;-67
2022/04/19 00:08:51;;;;;;;3.43;0.90;;;25.50;99.90;;;;;;5071875;28;20251;-66
2022/04/19 00:11:19;;;;;;;1.70;1.03;;;25.80;99.90;;;;;;5071812;28;20187;-65
2022/04/19 00:13:47;;;;;;;7.20;1.30;;;25.80;99.90;;;;;;5071314;28;20175;-65
2022/04/19 00:16:15;;;;;;;1.93;0.90;;;25.50;99.90;;;;;;5071420;28;20219;-66
2022/04/19 00:18:43;;;;;;;8.43;1.40;;;25.70;99.90;;;;;;5071946;28;20190;-66
2022/04/19 00:21:10;;;;;;;6.43;1.33;;;26.10;99.90;;;;;;5072136;28;20179;-66
2022/04/19 00:23:38;;;;;;;4.27;1.10;;;26.20;99.90;;;;;;5071389;28;20601;-65
2022/04/19 00:26:06;;;;;;;4.10;0.90;;;26.10;99.90;;;;;;5071924;28;20671;-66
2022/04/19 00:28:34;;;;;;;2.23;1.10;;;26.20;99.90;;;;;;5070469;28;20553;-66
2022/04/19 00:31:03;;;;;;;1.93;0.83;;;26.10;99.90;;;;;;5071558;28;20271;-66
2022/04/19 00:33:32;;;;;;;2.00;0.73;;;26.60;99.90;;;;;;5071435;28;20276;-67
2022/04/19 00:36:00;;;;;;;4.73;1.07;;;27.20;99.90;;;;;;5071639;28;20570;-66
2022/04/19 00:38:27;;;;;;;1.67;1.03;;;27.00;99.90;;;;;;5071721;28;20183;-67
2022/04/19 00:40:55;;;;;;;2.10;0.90;;;27.00;99.90;;;;;;5071705;28;20550;-66
2022/04/19 00:43:25;;;;;;;3.80;1.10;;;27.40;99.90;;;;;;5071215;28;20233;-66
2022/04/19 00:45:53;;;;;;;3.90;0.80;;;26.70;99.90;;;;;;5071806;28;20186;-67
2022/04/19 00:48:21;;;;;;;4.83;1.10;;;27.00;99.90;;;;;;5071437;28;20233;-67
2022/04/19 00:50:50;;;;;;;2.33;1.10;;;27.20;99.90;;;;;;5072330;28;20241;-67
2022/04/19 00:53:19;;;;;;;4.60;0.87;;;27.60;99.90;;;;;;5070239;28;20226;-68
2022/04/19 00:55:47;;;;;;;1.30;0.90;;;27.10;99.90;;;;;;5070643;28;20184;-68
2022/04/19 00:58:15;;;;;;;8.73;1.10;;;27.40;99.90;;;;;;5069666;28;20190;-67
2022/04/19 01:00:43;;;;;;;5.37;1.00;;;26.90;99.90;;;;;;5071525;28;20184;-68
2022/04/19 01:03:11;;;;;;;5.10;1.10;;;27.40;99.90;;;;;;5069795;28;20183;-68
2022/04/19 01:05:39;;;;;;;6.10;0.77;;;28.20;99.90;;;;;;5070187;28;20605;-68
2022/04/19 01:08:11;;;;;;;2.23;0.87;;;27.80;99.90;;;;;;5069848;28;20229;-68
2022/04/19 01:10:39;;;;;;;2.00;0.93;;;27.50;99.90;;;;;;5070301;28;20260;-67
2022/04/19 01:13:19;;;;;;;1.80;0.90;;;27.30;99.90;;;;;;5071117;28;20251;-68
2022/04/19 01:15:50;;;;;;;5.20;0.80;;;27.40;99.90;;;;;;5074445;28;20219;-66
2022/04/19 01:18:20;;;;;;;1.07;0.67;;;27.90;99.90;;;;;;5072958;28;20190;-67
2022/04/19 01:20:48;;;;;;;1.60;0.70;;;28.00;99.90;;;;;;5073690;28;20172;-67
2022/04/19 01:23:21;;;;;;;2.83;1.10;;;27.90;99.90;;;;;;5073655;28;20263;-68
2022/04/19 01:25:49;;;;;;;3.57;1.00;;;28.50;99.90;;;;;;5071433;28;20180;-67
2022/04/19 01:28:19;;;;;;;6.47;1.00;;;28.90;99.90;;;;;;5073114;28;20279;-66
2022/04/19 01:30:57;;;;;;;3.80;1.10;;;29.00;99.90;;;;;;5074707;28;20211;-68
2022/04/19 01:33:25;;;;;;;4.93;1.10;;;28.70;99.90;;;;;;5074444;28;20192;-67
2022/04/19 01:35:53;;;;;;;5.45;1.02;;;29.10;99.90;;;;;;5074177;28;20171;-68
2022/04/19 01:38:40;;;;;;;5.93;0.80;;;29.70;99.90;;;;;;5074023;28;20271;-67
2022/04/19 01:41:08;;;;;;;3.78;0.77;;;30.00;99.90;;;;;;5074586;28;20233;-67
2022/04/19 01:43:36;;;;;;;1.10;0.70;;;30.20;99.90;;;;;;5072882;28;20188;-68
2022/04/19 01:46:04;;;;;;;2.73;1.03;;;29.80;99.90;;;;;;5074468;28;20226;-67
2022/04/19 01:48:32;;;;;;;6.82;0.80;;;29.50;99.90;;;;;;5072812;28;20665;-67
2022/04/19 01:51:00;;;;;;;3.10;1.13;;;29.10;99.90;;;;;;5073263;28;20176;-67
2022/04/19 01:53:28;;;;;;;5.43;0.97;;;29.50;99.90;;;;;;5072482;28;20192;-68
2022/04/19 01:55:55;;;;;;;3.10;0.73;;;30.00;99.90;;;;;;5074389;28;20713;-67
2022/04/19 01:58:23;;;;;;;2.43;0.80;;;30.30;99.90;;;;;;5074469;28;20610;-68
2022/04/19 02:00:51;;;;;;;4.57;0.60;;;29.40;99.90;;;;;;5073354;28;20271;-67
2022/04/19 02:03:19;;;;;;;4.13;0.67;;;29.70;99.90;;;;;;5073985;28;20218;-67
2022/04/19 02:05:47;;;;;;;2.50;0.53;;;30.10;99.90;;;;;;5074291;28;20593;-67
2022/04/19 02:08:14;;;;;;;2.07;0.50;;;30.20;99.90;;;;;;5055910;28;20234;-67
2022/04/19 02:10:42;;;;;;;1.35;0.80;;;30.20;99.90;;;;;;5073937;28;20190;-68
2022/04/19 02:13:10;;;;;;;1.10;0.60;;;30.20;99.90;;;;;;5073769;28;20180;-67
2022/04/19 02:15:38;;;;;;;3.10;0.60;;;30.10;99.90;;;;;;5068992;28;20258;-67
2022/04/19 02:18:05;;;;;;;4.90;0.80;;;30.20;99.90;;;;;;5064323;28;20215;-67
2022/04/19 02:20:34;;;;;;;1.05;0.40;;;30.10;99.90;;;;;;5074033;28;20169;-67
2022/04/19 02:23:01;;;;;;;3.63;0.60;;;30.60;99.90;;;;;;5073741;28;20176;-67
2022/04/19 02:25:29;;;;;;;1.33;0.70;;;29.80;99.90;;;;;;5073424;28;20203;-67
2022/04/19 02:27:57;;;;;;;5.97;1.10;;;29.70;99.90;;;;;;5073541;28;20176;-67
2022/04/19 02:30:25;;;;;;;1.03;0.50;;;29.90;99.90;;;;;;5073864;28;20207;-66
2022/04/19 02:32:55;;;;;;;4.90;0.70;;;29.70;99.90;;;;;;5073800;28;20195;-68
2022/04/19 02:35:23;;;;;;;2.60;0.70;;;29.60;99.90;;;;;;5073671;28;20642;-67
2022/04/19 02:37:52;;;;;;;2.28;0.65;;;29.90;99.90;;;;;;5073546;28;20591;-66
2022/04/19 02:40:23;;;;;;;2.30;0.77;;;29.20;99.90;;;;;;5073666;28;20638;-66
2022/04/19 02:42:54;;;;;;;3.45;0.60;;;30.50;99.90;;;;;;5073428;28;20267;-68
2022/04/19 02:45:23;;;;;;;1.43;0.50;;;30.40;99.90;;;;;;5073689;28;20607;-67
2022/04/19 02:48:03;;;;;;;2.30;0.70;;;30.40;99.90;;;;;;5073075;28;20230;-68
2022/04/19 02:50:42;;;;;;;4.50;0.93;;;30.40;99.90;;;;;;5073487;28;20187;-68
2022/04/19 02:53:10;;;;;;;5.13;1.20;;;30.00;99.90;;;;;;5072842;28;20279;-67
2022/04/19 02:55:38;;;;;;;5.40;1.00;;;30.20;99.90;;;;;;5072854;28;20960;-67
2022/04/19 02:58:09;;;;;;;6.32;1.38;;;30.20;99.90;;;;;;5073484;28;20212;-68
2022/04/19 03:00:38;;;;;;;2.40;0.87;;;30.50;99.90;;;;;;5082175;28;20180;-68
2022/04/19 03:03:09;;;;;;;3.30;1.00;;;30.30;99.90;;;;;;5051708;28;20203;-68
2022/04/19 03:05:40;;;;;;;4.33;0.90;;;29.40;99.90;;;;;;5062590;28;20184;-68
2022/04/19 03:08:09;;;;;;;3.03;0.60;;;30.20;99.90;;;;;;5065765;28;20176;-68
2022/04/19 03:10:37;;;;;;;2.63;0.40;;;30.50;99.90;;;;;;5072543;28;20659;-69
2022/04/19 03:13:04;;;;;;;3.35;0.80;;;31.00;99.90;;;;;;5072850;28;20595;-69
2022/04/19 03:15:36;;;;;;;3.03;1.00;;;31.10;99.90;;;;;;5069975;28;20223;-68
2022/04/19 03:18:04;;;;;;;4.00;1.00;;;31.40;99.90;;;;;;5070269;28;20614;-67
2022/04/19 03:20:31;;;;;;;2.20;0.52;;;30.90;99.90;;;;;;5060891;28;20175;-68
2022/04/19 03:28:40;;;;;;;76.70;53.30;;;30.70;99.90;;;;;;5072245;28;20733;-68
2022/04/19 03:31:08;;;;;;;9.27;6.50;;;30.00;99.90;;;;;;5071626;28;20186;-68
2022/04/19 03:33:36;;;;;;;100.87;71.07;;;30.60;99.90;;;;;;5072628;28;20177;-69
2022/04/19 03:36:09;;;;;;;5.13;2.70;;;30.50;99.90;;;;;;5072670;28;20180;-69
2022/04/19 03:38:37;;;;;;;6.13;1.20;;;30.20;99.90;;;;;;5072237;28;20180;-68
2022/04/19 03:41:09;;;;;;;3.03;1.17;;;30.60;99.90;;;;;;5071820;28;20249;-68
2022/04/19 03:43:38;;;;;;;1.87;0.70;;;30.20;99.90;;;;;;5071776;28;20681;-69
2022/04/19 03:46:06;;;;;;;5.27;0.90;;;30.40;99.90;;;;;;5072127;28;20191;-68
2022/04/19 03:48:34;;;;;;;2.07;0.70;;;29.40;99.90;;;;;;5071596;28;20555;-68
2022/04/19 03:51:03;;;;;;;4.80;1.13;;;28.80;99.90;;;;;;5071930;28;20184;-68
2022/04/19 03:53:33;;;;;;;2.47;0.97;;;28.70;99.90;;;;;;5071049;28;20188;-68
2022/04/19 03:56:03;;;;;;;3.40;0.80;;;28.60;99.90;;;;;;5071775;28;20270;-68
2022/04/19 03:58:34;;;;;;;1.90;0.70;;;28.60;99.90;;;;;;5070726;28;20219;-69
2022/04/19 04:01:02;;;;;;;2.03;0.70;;;28.20;99.90;;;;;;5071089;28;20187;-67
2022/04/19 04:03:30;;;;;;;5.17;1.10;;;29.00;99.90;;;;;;5071584;28;20253;-68
2022/04/19 04:05:57;;;;;;;4.23;0.80;;;29.60;99.90;;;;;;5070860;28;20184;-68
2022/04/19 04:08:25;;;;;;;4.17;1.03;;;30.10;99.90;;;;;;5071690;28;20183;-68
2022/04/19 04:10:53;;;;;;;3.57;0.93;;;30.40;99.90;;;;;;5070451;28;20179;-67
2022/04/19 04:13:21;;;;;;;4.53;1.00;;;30.50;99.90;;;;;;5072015;28;20263;-67
2022/04/19 04:15:49;;;;;;;5.87;1.20;;;30.50;99.90;;;;;;5070495;28;20219;-67
2022/04/19 04:18:16;;;;;;;1.73;0.83;;;30.40;99.90;;;;;;5070295;28;20211;-67
2022/04/19 04:20:46;;;;;;;1.97;0.47;;;30.40;99.90;;;;;;5070129;28;20279;-68
2022/04/19 04:23:13;;;;;;;4.50;0.70;;;29.60;99.90;;;;;;5070965;28;20618;-68
2022/04/19 04:25:41;;;;;;;1.10;0.53;;;29.60;99.90;;;;;;5071848;28;20183;-69
2022/04/19 04:28:10;;;;;;;2.97;0.83;;;29.90;99.90;;;;;;5071440;28;20580;-69
2022/04/19 04:30:38;;;;;;;3.30;0.87;;;30.20;99.90;;;;;;5071727;28;20167;-69
2022/04/19 04:33:05;;;;;;;1.83;0.80;;;29.90;99.90;;;;;;5071087;28;20188;-68
2022/04/19 04:35:33;;;;;;;2.67;0.70;;;29.30;99.90;;;;;;5071255;28;20210;-69
2022/04/19 04:38:01;;;;;;;2.17;0.70;;;29.50;99.90;;;;;;5071534;28;20238;-69
2022/04/19 04:40:31;;;;;;;2.33;0.70;;;30.00;99.90;;;;;;5063231;28;20175;-68
2022/04/19 04:42:59;;;;;;;2.93;0.60;;;29.60;99.90;;;;;;5071309;28;20621;-67
2022/04/19 04:45:27;;;;;;;2.30;1.03;;;29.60;99.90;;;;;;5071010;28;20179;-68
2022/04/19 04:50:40;;;;;;;2.63;0.50;;;29.40;99.90;;;;;;5074951;28;20203;-68
2022/04/19 04:53:08;;;;;;;4.83;0.40;;;29.20;99.90;;;;;;5075831;28;20195;-68
2022/04/19 04:55:37;;;;;;;2.00;0.40;;;29.00;99.90;;;;;;5075462;28;20267;-66
2022/04/19 04:58:04;;;;;;;0.90;0.40;;;29.30;99.90;;;;;;5075718;28;20227;-68
2022/04/19 05:00:32;;;;;;;0.93;0.57;;;29.10;99.90;;;;;;5075685;28;20214;-67
2022/04/19 05:03:00;;;;;;;4.20;0.60;;;29.10;99.90;;;;;;5074934;28;20191;-67
2022/04/19 05:05:28;;;;;;;2.10;0.60;;;29.20;99.90;;;;;;5075323;28;20212;-67
2022/04/19 05:07:59;;;;;;;4.77;1.17;;;29.30;99.90;;;;;;5075502;28;20207;-67
2022/04/19 05:10:27;;;;;;;10.03;0.70;;;29.10;99.90;;;;;;5075574;28;20646;-68
2022/04/19 05:12:54;;;;;;;3.90;1.00;;;28.90;99.90;;;;;;5074803;28;20191;-68
2022/04/19 05:15:23;;;;;;;2.10;0.73;;;28.80;99.90;;;;;;5072988;28;20660;-68
2022/04/19 05:17:51;;;;;;;8.97;0.70;;;28.60;99.90;;;;;;5074829;28;20715;-67
2022/04/19 05:20:19;;;;;;;3.60;0.60;;;28.50;99.90;;;;;;5074766;28;20180;-67
2022/04/19 05:22:46;;;;;;;5.77;1.00;;;29.00;99.90;;;;;;5074563;28;20615;-67
2022/04/19 05:25:17;;;;;;;2.83;0.80;;;29.40;99.90;;;;;;5074859;28;20208;-67
2022/04/19 05:27:45;;;;;;;3.03;0.80;;;29.00;99.90;;;;;;5074852;28;20613;-67
2022/04/19 05:30:13;;;;;;;3.80;0.80;;;29.00;99.90;;;;;;5074631;28;20180;-67
2022/04/19 05:32:41;;;;;;;2.47;0.53;;;28.70;99.90;;;;;;5075119;28;20203;-67
2022/04/19 05:35:09;;;;;;;2.83;0.70;;;28.30;99.90;;;;;;5074561;28;20641;-67
2022/04/19 05:37:40;;;;;;;1.87;0.50;;;28.30;99.90;;;;;;5074318;28;20235;-68
2022/04/19 05:40:10;;;;;;;3.17;0.57;;;28.20;99.90;;;;;;5074814;28;20270;-68
2022/04/19 05:42:39;;;;;;;1.43;0.53;;;28.30;99.90;;;;;;5074658;28;20187;-67
2022/04/19 05:45:07;;;;;;;2.23;0.70;;;28.20;99.90;;;;;;5074866;28;20630;-68
2022/04/19 05:47:35;;;;;;;1.07;0.47;;;28.10;99.90;;;;;;5073195;28;20543;-69
2022/04/19 05:50:03;;;;;;;4.23;0.80;;;27.80;99.90;;;;;;5074324;28;20255;-68
2022/04/19 05:52:30;;;;;;;1.27;0.50;;;27.50;99.90;;;;;;5054895;28;20177;-67
2022/04/19 05:54:58;;;;;;;1.70;0.60;;;27.30;99.90;;;;;;5055194;28;20234;-69
2022/04/19 05:57:26;;;;;;;6.60;1.10;;;27.40;99.90;;;;;;5072461;28;20304;-68
2022/04/19 05:59:53;;;;;;;3.83;0.80;;;27.80;99.90;;;;;;5074669;28;20176;-70
2022/04/19 06:05:07;;;;;;;2.27;0.67;;;27.60;99.90;;;;;;5054694;28;20203;-69
2022/04/19 06:07:44;;;;;;;5.97;1.20;;;27.30;99.90;;;;;;5054670;28;20254;-68
2022/04/19 06:10:14;;;;;;;2.97;0.73;;;27.10;99.90;;;;;;5056779;28;20172;-69
2022/04/19 06:12:42;;;;;;;4.43;0.83;;;27.10;99.90;;;;;;5074318;28;20260;-67
2022/04/19 06:15:13;;;;;;;2.27;0.70;;;26.90;99.90;;;;;;5074295;28;20176;-67
2022/04/19 06:17:43;;;;;;;4.20;0.53;;;26.70;99.90;;;;;;5074286;28;20618;-68
2022/04/19 06:20:12;;;;;;;4.23;1.10;;;26.60;99.90;;;;;;5074147;28;20175;-69
2022/04/19 06:22:39;;;;;;;1.73;0.70;;;26.50;99.90;;;;;;5073949;28;20192;-67
2022/04/19 06:25:07;;;;;;;5.07;0.90;;;26.50;99.90;;;;;;5074013;28;20704;-69
2022/04/19 06:27:35;;;;;;;4.90;1.00;;;26.40;99.90;;;;;;5074266;28;20203;-69
2022/04/19 06:30:04;;;;;;;4.17;0.90;;;26.30;99.90;;;;;;5073725;28;20179;-68
2022/04/19 06:32:32;;;;;;;4.43;1.13;;;26.20;99.90;;;;;;5073931;28;20660;-72
2022/04/19 06:34:59;;;;;;;5.13;1.10;;;26.20;99.90;;;;;;5074225;28;20241;-70
2022/04/19 06:37:29;;;;;;;2.27;0.87;;;26.10;99.90;;;;;;5073655;28;20219;-68
2022/04/19 06:40:05;;;;;;;2.67;0.73;;;26.00;99.90;;;;;;5073654;28;20214;-67
2022/04/19 06:42:34;;;;;;;4.53;0.83;;;26.00;99.90;;;;;;5073861;28;20180;-67
2022/04/19 06:45:02;;;;;;;3.87;0.83;;;25.90;99.90;;;;;;5073800;28;20192;-68
2022/04/19 06:47:29;;;;;;;2.40;0.43;;;25.90;99.90;;;;;;5073787;28;20541;-67
2022/04/19 06:49:57;;;;;;;0.87;0.57;;;25.80;99.90;;;;;;5073261;28;20241;-68
2022/04/19 06:52:28;;;;;;;5.83;1.10;;;25.80;99.90;;;;;;5073516;28;20558;-69
2022/04/19 06:54:56;;;;;;;2.63;0.67;;;25.70;99.90;;;;;;5073702;28;20168;-67
2022/04/19 06:57:24;;;;;;;2.97;0.70;;;25.60;99.90;;;;;;5072626;28;20306;-68
2022/04/19 06:59:51;;;;;;;2.50;0.77;;;25.50;99.90;;;;;;5073300;28;20215;-68
2022/04/19 07:02:19;;;;;;;3.17;0.70;;;25.40;99.90;;;;;;5073497;28;20187;-66
2022/04/19 07:04:47;;;;;;;3.43;0.67;;;25.40;99.90;;;;;;5073195;28;20541;-69
2022/04/19 07:07:15;;;;;;;4.83;0.63;;;25.40;99.90;;;;;;5073516;28;20168;-69
2022/04/19 07:09:42;;;;;;;3.43;0.83;;;25.40;99.90;;;;;;5073164;28;20176;-69
2022/04/19 07:12:10;;;;;;;3.50;0.57;;;25.40;99.90;;;;;;5072865;28;20203;-69
2022/04/19 07:14:38;;;;;;;3.03;0.70;;;25.30;99.90;;;;;;5073253;28;20191;-69
2022/04/19 07:17:06;;;;;;;2.10;0.80;;;25.20;99.90;;;;;;5072607;28;20288;-68
2022/04/19 07:28:00;;;;;;;2.60;0.87;;;25.00;99.90;;;;;;5052963;28;20222;-68
2022/04/19 07:30:28;;;;;;;1.20;0.70;;;24.90;99.90;;;;;;5070296;28;20289;-69
2022/04/19 07:32:57;;;;;;;2.80;0.90;;;24.90;99.90;;;;;;5071788;28;20689;-66
2022/04/19 07:35:28;;;;;;;1.60;0.70;;;24.80;99.90;;;;;;5072335;28;20268;-67
2022/04/19 07:37:55;;;;;;;5.10;0.80;;;24.80;99.90;;;;;;5072434;28;20216;-69
2022/04/19 07:40:23;;;;;;;5.40;1.00;;;24.70;99.90;;;;;;5071868;28;20210;-70
2022/04/19 07:42:51;;;;;;;3.60;0.90;;;24.70;99.90;;;;;;5072750;28;20657;-69
2022/04/19 07:45:19;;;;;;;2.80;0.73;;;24.60;99.90;;;;;;5072454;28;20195;-69
2022/04/19 07:47:48;;;;;;;2.37;0.73;;;24.60;99.90;;;;;;5072591;28;20168;-69
2022/04/19 07:50:15;;;;;;;1.50;0.70;;;24.60;99.90;;;;;;5070656;28;20184;-68
2022/04/19 07:52:43;;;;;;;2.60;0.70;;;24.40;99.90;;;;;;5072142;28;20188;-69
2022/04/19 07:55:15;;;;;;;7.27;1.20;;;24.40;99.90;;;;;;5070667;28;20199;-68
2022/04/19 07:57:42;;;;;;;3.13;1.23;;;24.40;99.90;;;;;;5072145;28;20707;-67
2022/04/19 08:00:11;;;;;;;2.57;1.10;;;24.30;99.90;;;;;;5071824;28;20238;-67
2022/04/19 08:02:38;;;;;;;3.77;1.73;;;24.20;99.90;;;;;;5072375;28;20183;-67
2022/04/19 08:05:07;;;;;;;5.67;1.20;;;24.20;99.90;;;;;;5072239;28;20183;-68
2022/04/19 08:07:35;;;;;;;2.70;0.93;;;24.10;99.90;;;;;;5071135;28;20276;-69
2022/04/19 08:10:03;;;;;;;2.83;1.23;;;23.90;99.90;;;;;;5071548;28;20180;-68
2022/04/19 08:12:32;;;;;;;2.03;0.93;;;23.80;99.90;;;;;;5072015;28;20187;-68
2022/04/19 08:15:01;;;;;;;4.53;1.43;;;23.70;99.90;;;;;;5072621;28;20183;-67
2022/04/19 08:17:29;;;;;;;2.03;1.27;;;23.70;99.90;;;;;;5071841;28;20653;-67
2022/04/19 08:19:57;;;;;;;7.93;1.63;;;23.70;99.90;;;;;;5071930;28;20202;-68
2022/04/19 08:22:25;;;;;;;4.40;1.83;;;23.60;99.90;;;;;;5072086;28;20298;-67
2022/04/19 08:24:53;;;;;;;4.23;1.40;;;23.60;99.90;;;;;;5071403;28;20172;-67
2022/04/19 08:27:21;;;;;;;3.53;1.37;;;23.70;99.90;;;;;;5072129;28;20179;-67
2022/04/19 08:29:49;;;;;;;2.40;1.20;;;23.60;99.90;;;;;;5071086;28;20266;-67
2022/04/19 08:32:16;;;;;;;3.40;1.10;;;23.60;99.90;;;;;;5071744;28;20180;-67
2022/04/19 08:34:45;;;;;;;1.53;1.10;;;23.60;99.90;;;;;;5071945;28;20183;-67
2022/04/19 08:37:13;;;;;;;4.73;1.60;;;23.60;99.90;;;;;;5071436;28;20215;-67
2022/04/19 08:39:41;;;;;;;3.60;1.20;;;23.50;99.90;;;;;;5071973;28;20210;-68
2022/04/19 08:42:08;;;;;;;4.93;1.27;;;23.50;99.90;;;;;;5072123;28;20218;-68
2022/04/19 08:44:36;;;;;;;5.40;1.20;;;23.30;99.90;;;;;;5071634;28;20176;-68
2022/04/19 08:47:13;;;;;;;3.83;1.40;;;23.30;99.90;;;;;;5071894;28;20180;-67
2022/04/19 08:49:43;;;;;;;4.30;1.50;;;23.30;99.90;;;;;;5070606;28;20183;-67
2022/04/19 08:52:10;;;;;;;4.23;1.60;;;23.30;99.90;;;;;;5071884;28;20548;-67
2022/04/19 08:57:30;;;;;;;2.97;1.10;;;23.20;99.90;;;;;;5071546;28;20217;-68
2022/04/19 08:59:59;;;;;;;4.53;1.40;;;23.10;99.90;;;;;;5071799;28;20171;-68
2022/04/19 09:02:29;;;;;;;2.10;1.27;;;23.20;99.90;;;;;;5071716;28;20192;-68
2022/04/19 09:05:12;;;;;;;5.37;1.53;;;23.20;99.90;;;;;;5071712;28;20263;-69
2022/04/19 09:07:41;;;;;;;3.00;1.10;;;23.30;99.90;;;;;;5072246;28;20732;-68
2022/04/19 09:10:19;;;;;;;4.30;1.30;;;23.30;99.90;;;;;;5072437;28;20308;-68
2022/04/19 09:13:14;;;;;;;9.90;1.27;;;23.40;99.90;;;;;;5072507;28;20217;-68
2022/04/19 09:15:43;;;;;;;4.33;1.33;;;23.40;99.90;;;;;;5072227;28;20226;-68
2022/04/19 09:18:34;;;;;;;2.50;1.20;;;23.30;99.90;;;;;;5072465;28;20247;-67
2022/04/19 09:21:04;;;;;;;5.97;1.27;;;23.20;99.90;;;;;;5070980;28;20649;-68
2022/04/19 09:23:55;;;;;;;9.53;1.50;;;23.20;99.90;;;;;;5070689;28;20191;-68
2022/04/19 09:26:22;;;;;;;2.57;1.20;;;23.10;99.90;;;;;;5071903;28;20180;-67
2022/04/19 09:29:20;;;;;;;4.20;1.60;;;23.10;99.90;;;;;;5071168;28;20543;-67
2022/04/19 09:31:50;;;;;;;4.93;1.30;;;23.00;99.90;;;;;;5071337;28;20620;-69
2022/04/19 09:34:28;;;;;;;7.30;1.10;;;23.00;99.90;;;;;;5072732;28;20183;-67
2022/04/19 09:37:13;;;;;;;2.37;1.20;;;23.00;99.90;;;;;;5056164;28;20715;-67
2022/04/19 09:39:44;;;;;;;4.47;1.13;;;22.90;99.90;;;;;;5056432;28;20226;-68
2022/04/19 09:42:16;;;;;;;5.80;1.50;;;22.80;99.90;;;;;;5062030;28;20192;-67
2022/04/19 09:44:50;;;;;;;3.83;1.47;;;22.80;99.90;;;;;;5072551;28;20314;-68
2022/04/19 09:47:20;;;;;;;3.07;1.30;;;22.70;99.90;;;;;;5076049;28;20232;-70
2022/04/19 09:49:54;;;;;;;5.03;1.13;;;22.70;99.90;;;;;;5074605;28;20207;-69
2022/04/19 09:52:24;;;;;;;6.13;1.40;;;22.70;99.90;;;;;;5075720;28;20650;-68
2022/04/19 09:55:09;;;;;;;5.40;1.80;;;22.70;99.90;;;;;;5076416;28;20180;-68
2022/04/19 09:57:39;;;;;;;4.90;1.33;;;22.70;99.90;;;;;;5070956;28;20205;-67
2022/04/19 10:00:16;;;;;;;6.17;1.23;;;22.70;99.90;;;;;;5072489;28;20179;-69
2022/04/19 10:08:24;;;;;;;7.13;1.33;;;22.70;99.90;;;;;;5075179;28;20197;-69
2022/04/19 10:10:56;;;;;;;5.27;1.33;;;22.60;99.90;;;;;;5075641;28;20182;-69
2022/04/19 10:13:24;;;;;;;3.00;1.47;;;22.60;99.90;;;;;;5076019;28;20187;-68
2022/04/19 10:15:55;;;;;;;3.67;1.23;;;22.60;99.90;;;;;;5075223;28;20216;-69
2022/04/19 10:18:23;;;;;;;4.33;1.57;;;22.60;99.90;;;;;;5074050;28;20299;-69
2022/04/19 10:20:55;;;;;;;6.37;1.10;;;22.60;99.90;;;;;;5075903;28;20174;-69
2022/04/19 10:23:38;;;;;;;1.50;1.00;;;22.60;99.90;;;;;;5075336;28;20187;-69
2022/04/19 10:26:15;;;;;;;7.33;1.63;;;22.60;99.90;;;;;;5075603;28;20172;-69
2022/04/19 10:28:46;;;;;;;6.73;1.47;;;22.50;99.90;;;;;;5075351;28;20185;-69
2022/04/19 10:31:24;;;;;;;5.40;2.03;;;22.50;99.90;;;;;;5075622;28;20187;-69
2022/04/19 10:33:53;;;;;;;4.07;1.40;;;22.50;99.90;;;;;;5075581;28;20270;-69
2022/04/19 10:36:34;;;;;;;5.60;1.83;;;22.50;99.90;;;;;;5075406;28;20220;-69
2022/04/19 10:39:15;;;;;;;6.50;1.40;;;22.50;99.90;;;;;;5075127;28;20184;-68
2022/04/19 10:41:57;;;;;;;5.23;0.93;;;22.60;99.90;;;;;;5075600;28;20176;-68
2022/04/19 10:44:31;;;;;;;4.30;1.57;;;22.50;99.90;;;;;;5073763;28;20790;-68
2022/04/19 10:47:33;;;;;;;4.37;1.27;;;22.50;99.90;;;;;;5074535;28;20249;-71
2022/04/19 10:50:02;;;;;;;5.23;1.30;;;22.50;99.90;;;;;;5052650;28;20188;-68
2022/04/19 10:52:45;;;;;;;4.60;1.40;;;22.50;99.90;;;;;;5054676;28;20202;-68
2022/04/19 10:55:25;;;;;;;6.67;1.37;;;22.50;99.90;;;;;;5054956;28;20271;-68
2022/04/19 10:58:09;;;;;;;10.23;1.30;;;22.40;99.90;;;;;;5054934;28;20280;-68
2022/04/19 11:00:51;;;;;;;2.63;1.30;;;22.40;99.90;;;;;;5074091;28;20184;-69
2022/04/19 11:03:21;;;;;;;3.73;1.10;;;22.40;99.90;;;;;;5074596;28;20180;-68
2022/04/19 11:05:56;;;;;;;8.40;1.27;;;22.50;99.90;;;;;;5075096;28;20600;-68
2022/04/19 11:08:37;;;;;;;5.10;0.80;;;22.10;99.90;;;;;;5074659;28;20203;-69
2022/04/19 11:11:23;;;;;;;4.60;1.40;;;20.20;99.90;;;;;;5074057;28;20183;-69
2022/04/19 11:14:21;;;;;;;7.10;2.23;;;18.90;99.90;;;;;;5075453;28;20172;-71
2022/04/19 11:17:21;;;;;;;5.87;1.13;;;17.70;99.90;;;;;;5070837;28;20293;-69
2022/04/19 11:19:57;;;;;;;6.77;1.63;;;17.20;99.90;;;;;;5075111;28;20278;-70
2022/04/19 11:22:29;;;;;;;6.20;1.40;;;17.00;99.90;;;;;;5075586;28;20180;-69
2022/04/19 11:25:06;;;;;;;5.13;1.67;;;16.90;99.90;;;;;;5075345;28;20237;-69
2022/04/19 11:27:54;;;;;;;5.20;1.33;;;16.90;99.90;;;;;;5073627;28;20183;-69
2022/04/19 11:30:27;;;;;;;4.13;1.17;;;16.80;99.90;;;;;;5074758;28;20701;-70
2022/04/19 11:33:00;;;;;;;8.80;1.10;;;16.70;99.90;;;;;;5074920;28;20172;-70
2022/04/19 11:35:32;;;;;;;3.83;0.87;;;16.60;99.90;;;;;;5075068;28;20215;-69
2022/04/19 11:38:08;;;;;;;2.77;1.00;;;16.60;99.90;;;;;;5073815;28;20277;-69
2022/04/19 11:46:44;;;;;;;4.17;1.47;;;16.60;99.90;;;;;;5074064;28;20186;-69
2022/04/19 11:49:21;;;;;;;4.87;1.60;;;16.50;99.90;;;;;;5073483;28;20183;-69
2022/04/19 11:51:52;;;;;;;3.63;1.23;;;16.80;99.90;;;;;;5073672;28;20187;-69
2022/04/19 11:54:24;;;;;;;7.33;1.47;;;17.00;99.90;;;;;;5073559;28;20188;-69
2022/04/19 11:57:11;;;;;;;9.07;1.70;;;16.90;99.90;;;;;;5072843;28;20628;-69
2022/04/19 11:59:41;;;;;;;8.77;1.40;;;16.80;99.90;;;;;;5070534;28;20195;-69
2022/04/19 12:02:20;;;;;;;2.77;1.17;;;16.90;99.90;;;;;;5073251;28;20210;-69
2022/04/19 12:04:57;;;;;;;2.00;1.03;;;16.80;99.90;;;;;;5073273;28;20175;-69
2022/04/19 12:07:26;;;;;;;2.60;1.17;;;16.80;99.90;;;;;;5073097;28;20180;-68
2022/04/19 12:09:54;;;;;;;1.73;1.13;;;16.60;99.90;;;;;;5073103;28;20176;-69
2022/04/19 12:12:22;;;;;;;4.60;1.63;;;16.70;99.90;;;;;;5073247;28;20508;-69
2022/04/19 12:14:54;;;;;;;3.83;1.53;;;16.60;99.90;;;;;;5073282;28;20183;-69
2022/04/19 12:17:25;;;;;;;7.70;1.50;;;16.80;99.90;;;;;;5073130;28;20266;-68
2022/04/19 12:20:05;;;;;;;4.60;1.33;;;16.90;99.90;;;;;;5060640;28;20186;-68
2022/04/19 12:22:35;;;;;;;7.03;1.60;;;16.80;99.90;;;;;;5072973;28;20278;-69
2022/04/19 12:25:03;;;;;;;3.40;1.23;;;16.70;99.90;;;;;;5073483;28;20251;-69
2022/04/19 12:27:34;;;;;;;7.20;1.10;;;16.70;99.90;;;;;;5073139;28;20176;-69
2022/04/19 12:30:28;;;;;;;3.57;1.47;;;16.70;99.90;;;;;;5073128;28;20230;-69
2022/04/19 12:32:59;;;;;;;3.40;1.40;;;16.70;99.90;;;;;;5053065;28;20181;-69
2022/04/19 12:35:34;;;;;;;3.77;1.27;;;16.60;99.90;;;;;;5052053;28;20181;-69
2022/04/19 12:38:17;;;;;;;5.20;1.30;;;16.70;99.90;;;;;;5067940;28;20226;-69
2022/04/19 12:40:46;;;;;;;4.37;1.10;;;16.80;99.90;;;;;;5073041;28;20215;-69
2022/04/19 12:43:18;;;;;;;2.57;1.03;;;16.60;99.90;;;;;;5073010;28;20204;-68
2022/04/19 12:45:48;;;;;;;4.00;1.03;;;16.60;99.90;;;;;;5073306;28;20176;-69
2022/04/19 12:48:23;;;;;;;3.83;1.40;;;16.60;99.90;;;;;;5072259;28;20279;-68
2022/04/19 12:51:02;;;;;;;2.17;0.90;;;16.70;99.90;;;;;;5073342;28;20221;-69
2022/04/19 12:53:29;;;;;;;7.00;1.67;;;16.60;99.90;;;;;;5073100;28;20183;-68
2022/04/19 12:56:10;;;;;;;3.93;1.10;;;16.50;99.90;;;;;;5072747;28;20191;-68
2022/04/19 12:58:49;;;;;;;3.73;1.33;;;16.40;99.90;;;;;;5072776;28;20190;-68
2022/04/19 13:01:16;;;;;;;4.20;1.00;;;16.40;99.90;;;;;;5073097;28;20186;-67
2022/04/19 13:03:44;;;;;;;4.10;1.00;;;16.30;99.90;;;;;;5072752;28;20180;-69
2022/04/19 13:14:29;;;;;;;2.17;1.10;;;16.40;99.90;;;;;;5076403;28;20317;-68
2022/04/19 13:16:57;;;;;;;7.50;1.37;;;16.50;99.90;;;;;;5075813;28;20259;-68
2022/04/19 13:19:25;;;;;;;2.37;1.07;;;16.60;99.90;;;;;;5076490;28;20195;-68
2022/04/19 13:21:53;;;;;;;4.07;1.10;;;16.50;99.90;;;;;;5076558;28;20179;-69
2022/04/19 13:24:21;;;;;;;4.63;1.30;;;16.50;99.90;;;;;;5076359;28;20642;-68
2022/04/19 13:26:49;;;;;;;1.53;0.90;;;16.50;99.90;;;;;;5076078;28;20211;-68
2022/04/19 13:29:17;;;;;;;1.50;1.00;;;16.50;99.90;;;;;;5076026;28;20187;-69
2022/04/19 13:31:44;;;;;;;2.30;1.07;;;16.50;99.90;;;;;;5076224;28;20176;-69
2022/04/19 13:34:12;;;;;;;2.10;0.87;;;16.60;99.90;;;;;;5076517;28;20176;-68
2022/04/19 13:36:40;;;;;;;3.53;1.00;;;16.60;99.90;;;;;;5076212;28;20627;-69
2022/04/19 13:39:09;;;;;;;3.00;1.10;;;16.60;99.90;;;;;;5058243;28;20191;-68
2022/04/19 13:41:41;;;;;;;7.93;1.70;;;16.60;99.90;;;;;;5076465;28;20263;-69
2022/04/19 13:44:10;;;;;;;2.53;0.93;;;16.60;99.90;;;;;;5076883;28;20278;-69
2022/04/19 13:46:39;;;;;;;4.83;1.50;;;16.60;99.90;;;;;;5076714;28;20268;-69